Time;durP1;ratioP1;P1;durP2;ratioP2;P2;SDS_P1;SDS_P2;PMS_P1;PMS_P2;Temp;Humidity;BMP_temperature;BMP_pressure;BME280_temperature;BME280_humidity;BME280_pressure;Samples;Min_cycle;Max_cycle;Signal;HPM_P1;HPM_P2
2021/12/04 00:01:42;;;;;;;7.50;2.83;;;;;;;;;;4976570;28;20015;-87
2021/12/04 00:04:08;;;;;;;9.93;3.72;;;;;;;;;;4959793;28;20042;-88
2021/12/04 00:06:38;;;;;;;5.13;3.10;;;;;;;;;;4975973;28;20079;-87
2021/12/04 00:09:05;;;;;;;4.40;2.92;;;;;;;;;;4976008;28;20046;-86
2021/12/04 00:11:32;;;;;;;3.53;2.80;;;;;;;;;;4956852;28;20043;-87
2021/12/04 00:13:58;;;;;;;5.05;3.33;;;;;;;;;;4956517;28;20082;-86
2021/12/04 00:16:24;;;;;;;4.55;2.92;;;;;;;;;;4939635;28;20016;-87
2021/12/04 00:18:50;;;;;;;6.05;3.15;;;;;;;;;;4956003;28;20043;-88
2021/12/04 00:21:16;;;;;;;3.53;2.90;;;;;;;;;;4955973;28;20063;-90
2021/12/04 00:23:42;;;;;;;5.05;3.08;;;;;;;;;;4947096;28;20040;-83
2021/12/04 00:26:08;;;;;;;4.40;3.25;;;;;;;;;;4915166;28;20082;-85
2021/12/04 00:28:34;;;;;;;3.33;3.03;;;;;;;;;;4915329;28;20027;-85
2021/12/04 00:31:05;;;;;;;5.55;3.03;;;;;;;;;;4940250;28;20165;-84
2021/12/04 00:33:32;;;;;;;6.28;3.13;;;;;;;;;;4932463;29;20538;-86
2021/12/04 00:36:01;;;;;;;3.83;3.03;;;;;;;;;;4915238;28;20123;-85
2021/12/04 00:49:18;;;;;;;4.28;3.25;;;;;;;;;;4946953;29;20505;-84
2021/12/04 00:51:53;;;;;;;5.68;2.50;;;;;;;;;;4951389;28;20046;-85
2021/12/04 00:54:20;;;;;;;4.28;2.42;;;;;;;;;;4922417;28;20391;-84
2021/12/04 00:56:46;;;;;;;5.97;3.17;;;;;;;;;;4935624;29;20046;-84
2021/12/04 00:59:13;;;;;;;9.40;3.38;;;;;;;;;;4943398;28;20014;-84
2021/12/04 01:01:40;;;;;;;4.60;2.63;;;;;;;;;;4918935;28;20051;-84
2021/12/04 01:04:09;;;;;;;7.10;3.92;;;;;;;;;;4943367;28;20031;-86
2021/12/04 01:06:36;;;;;;;;;;;;;;;;;;4937890;28;20059;-86
2021/12/04 01:09:03;;;;;;;5.50;2.83;;;;;;;;;;4986650;28;19906;-87
2021/12/04 01:11:29;;;;;;;9.27;3.67;;;;;;;;;;4939685;28;20023;-85
2021/12/04 01:13:55;;;;;;;8.30;3.28;;;;;;;;;;4967157;28;20102;-86
2021/12/04 01:16:21;;;;;;;6.60;3.25;;;;;;;;;;4934642;28;20051;-86
2021/12/04 01:18:48;;;;;;;3.97;2.63;;;;;;;;;;4942495;28;20047;-85
2021/12/04 01:21:14;;;;;;;5.57;2.80;;;;;;;;;;4943762;28;20028;-85
2021/12/04 01:23:40;;;;;;;5.22;3.00;;;;;;;;;;4926189;28;20040;-87
2021/12/04 01:26:07;;;;;;;4.45;2.78;;;;;;;;;;4942209;28;20023;-84
2021/12/04 01:28:33;;;;;;;4.22;2.80;;;;;;;;;;4928789;28;20028;-82
2021/12/04 01:31:00;;;;;;;3.50;2.20;;;;;;;;;;4948697;28;20090;-85
2021/12/04 01:33:26;;;;;;;2.97;2.40;;;;;;;;;;4940716;28;20027;-85
2021/12/04 01:35:52;;;;;;;3.17;2.42;;;;;;;;;;4922732;29;20086;-86
2021/12/04 01:38:18;;;;;;;2.42;2.13;;;;;;;;;;4939579;28;20113;-84
2021/12/04 01:40:45;;;;;;;2.40;2.17;;;;;;;;;;4938907;28;20032;-84
2021/12/04 01:43:11;;;;;;;2.20;2.00;;;;;;;;;;4920896;29;20449;-87
2021/12/04 01:45:37;;;;;;;2.55;2.35;;;;;;;;;;4936791;28;20028;-85
2021/12/04 01:48:03;;;;;;;2.72;2.40;;;;;;;;;;4936803;28;20046;-85
2021/12/04 01:50:30;;;;;;;2.63;2.15;;;;;;;;;;4919602;28;20059;-85
2021/12/04 01:52:57;;;;;;;2.25;2.05;;;;;;;;;;4919349;28;20400;-85
2021/12/04 01:55:33;;;;;;;3.17;2.22;;;;;;;;;;4936953;28;20402;-84
2021/12/04 01:58:02;;;;;;;4.22;2.88;;;;;;;;;;4936705;28;20036;-86
2021/12/04 02:00:30;;;;;;;6.47;2.90;;;;;;;;;;4919403;28;20055;-85
2021/12/04 02:02:56;;;;;;;3.53;3.08;;;;;;;;;;4936346;28;20034;-86
2021/12/04 02:05:23;;;;;;;5.60;2.72;;;;;;;;;;4936530;28;20039;-86
2021/12/04 02:07:49;;;;;;;3.63;2.95;;;;;;;;;;4935639;28;20031;-85
2021/12/04 02:10:15;;;;;;;4.68;3.20;;;;;;;;;;4919393;28;20055;-84
2021/12/04 02:12:41;;;;;;;4.03;2.88;;;;;;;;;;4931497;28;20038;-84
2021/12/04 02:15:10;;;;;;;3.83;3.13;;;;;;;;;;4956771;28;20034;-86
2021/12/04 02:17:36;;;;;;;3.53;2.97;;;;;;;;;;4956872;28;20028;-85
2021/12/04 02:20:04;;;;;;;5.50;3.83;;;;;;;;;;4939098;28;20025;-85
2021/12/04 02:22:30;;;;;;;5.45;3.60;;;;;;;;;;4939447;28;20112;-84
2021/12/04 02:24:56;;;;;;;4.65;3.97;;;;;;;;;;4956354;28;20471;-84
2021/12/04 02:27:22;;;;;;;5.38;4.00;;;;;;;;;;4938893;28;20085;-84
2021/12/04 02:29:48;;;;;;;6.38;4.68;;;;;;;;;;4956138;28;20019;-85
2021/12/04 02:32:15;;;;;;;4.53;3.92;;;;;;;;;;4957637;28;20431;-87
2021/12/04 02:34:41;;;;;;;4.30;3.55;;;;;;;;;;4959634;28;20454;-87
2021/12/04 02:37:08;;;;;;;5.65;4.38;;;;;;;;;;4959065;28;20031;-88
2021/12/04 02:39:36;;;;;;;8.93;4.28;;;;;;;;;;4941265;28;20035;-86
2021/12/04 02:42:05;;;;;;;6.88;4.85;;;;;;;;;;4959575;28;20030;-86
2021/12/04 02:44:34;;;;;;;5.93;4.10;;;;;;;;;;4958859;28;20054;-86
2021/12/04 02:47:00;;;;;;;5.57;4.10;;;;;;;;;;4958958;28;20031;-85
2021/12/04 02:49:26;;;;;;;5.63;4.05;;;;;;;;;;4960071;28;20422;-85
2021/12/04 02:51:52;;;;;;;4.50;3.60;;;;;;;;;;4959374;28;20019;-86
2021/12/04 02:54:19;;;;;;;5.20;3.42;;;;;;;;;;4930312;28;20039;-84
2021/12/04 02:56:45;;;;;;;5.60;3.92;;;;;;;;;;4922681;28;20089;-83
2021/12/04 02:59:12;;;;;;;5.45;3.80;;;;;;;;;;4940326;28;20043;-86
2021/12/04 03:01:41;;;;;;;5.10;3.67;;;;;;;;;;4940392;28;20024;-86
2021/12/04 03:04:13;;;;;;;4.25;3.83;;;;;;;;;;4939292;28;20495;-88
2021/12/04 03:06:47;;;;;;;4.40;3.78;;;;;;;;;;4940652;29;20024;-86
2021/12/04 03:09:14;;;;;;;3.70;3.40;;;;;;;;;;4923757;28;20020;-88
2021/12/04 03:11:40;;;;;;;5.45;3.10;;;;;;;;;;4944152;28;20031;-85
2021/12/04 03:14:07;;;;;;;3.28;2.90;;;;;;;;;;4942450;28;20032;-87
2021/12/04 03:16:35;;;;;;;3.75;3.08;;;;;;;;;;4941867;28;20435;-86
2021/12/04 03:19:01;;;;;;;2.90;2.60;;;;;;;;;;4941696;28;20054;-85
2021/12/04 03:21:27;;;;;;;3.28;2.92;;;;;;;;;;4942359;28;20041;-85
2021/12/04 03:26:20;;;;;;;3.47;3.15;;;;;;;;;;4960159;28;20386;-85
2021/12/04 03:28:47;;;;;;;3.15;2.80;;;;;;;;;;4963476;29;20031;-85
2021/12/04 03:31:18;;;;;;;2.55;2.35;;;;;;;;;;4942200;28;20023;-84
2021/12/04 03:41:58;;;;;;;2.95;2.65;;;;;;;;;;4968171;28;20042;-84
2021/12/04 03:44:24;;;;;;;2.53;2.33;;;;;;;;;;4951681;28;20097;-85
2021/12/04 03:46:51;;;;;;;2.75;2.47;;;;;;;;;;4968833;28;20062;-86
2021/12/04 03:49:17;;;;;;;4.65;2.85;;;;;;;;;;4952023;28;20070;-85
2021/12/04 03:51:43;;;;;;;7.47;2.85;;;;;;;;;;4957608;28;20032;-84
2021/12/04 03:54:09;;;;;;;2.72;2.40;;;;;;;;;;4956097;28;20028;-85
2021/12/04 03:56:36;;;;;;;3.80;2.67;;;;;;;;;;4938363;28;20027;-83
2021/12/04 03:59:02;;;;;;;3.13;2.80;;;;;;;;;;4940308;28;20054;-86
2021/12/04 04:01:29;;;;;;;2.40;2.10;;;;;;;;;;4940953;28;20062;-86
2021/12/04 04:03:55;;;;;;;2.55;2.35;;;;;;;;;;4958758;28;20038;-84
2021/12/04 04:06:21;;;;;;;2.70;2.40;;;;;;;;;;4940397;28;20019;-86
2021/12/04 04:08:47;;;;;;;3.15;2.40;;;;;;;;;;4940442;28;20027;-86
2021/12/04 04:11:14;;;;;;;2.60;2.28;;;;;;;;;;4957981;28;20023;-87
2021/12/04 04:13:43;;;;;;;2.60;2.40;;;;;;;;;;4902875;28;20040;-84
2021/12/04 04:16:09;;;;;;;2.42;2.20;;;;;;;;;;4919515;29;20028;-87
2021/12/04 04:18:35;;;;;;;2.65;2.45;;;;;;;;;;4902158;28;20043;-85
2021/12/04 04:21:01;;;;;;;2.45;2.25;;;;;;;;;;4902502;28;20051;-86
2021/12/04 04:23:27;;;;;;;2.15;2.00;;;;;;;;;;4901560;29;20024;-86
2021/12/04 04:25:53;;;;;;;2.00;1.90;;;;;;;;;;4901574;29;20079;-86
2021/12/04 04:28:20;;;;;;;2.15;1.95;;;;;;;;;;4918826;28;20029;-85
2021/12/04 04:30:46;;;;;;;1.77;1.63;;;;;;;;;;4902561;29;20028;-86
2021/12/04 04:33:14;;;;;;;1.90;1.70;;;;;;;;;;4921466;28;20032;-86
2021/12/04 04:35:40;;;;;;;2.00;1.77;;;;;;;;;;4921714;28;20068;-87
2021/12/04 05:00:33;;;;;;;1.40;1.30;;;;;;;;;;4961386;28;20039;-86
2021/12/04 05:13:41;;;;;;;1.58;1.48;;;;;;;;;;4941024;28;20097;-87
2021/12/04 05:16:31;;;;;;;1.50;1.40;;;;;;;;;;4923674;28;20403;-86
2021/12/04 05:19:00;;;;;;;1.48;1.38;;;;;;;;;;4924673;29;20035;-86
2021/12/04 05:21:26;;;;;;;1.42;1.33;;;;;;;;;;4941736;28;20074;-86
2021/12/04 05:23:54;;;;;;;1.85;1.67;;;;;;;;;;4941629;28;20488;-86
2021/12/04 05:26:29;;;;;;;2.97;1.52;;;;;;;;;;4924556;28;20127;-86
2021/12/04 05:28:58;;;;;;;1.60;1.50;;;;;;;;;;4941462;29;20020;-86
2021/12/04 05:31:25;;;;;;;1.35;1.20;;;;;;;;;;4941382;28;20039;-88
2021/12/04 05:33:52;;;;;;;2.35;1.80;;;;;;;;;;4924374;28;20059;-87
2021/12/04 05:36:18;;;;;;;2.75;1.55;;;;;;;;;;4924702;29;20031;-86
2021/12/04 05:38:44;;;;;;;1.40;1.30;;;;;;;;;;4940999;28;20028;-84
2021/12/04 05:41:11;;;;;;;1.35;1.25;;;;;;;;;;4924239;28;20039;-87
2021/12/04 05:43:37;;;;;;;4.05;1.45;;;;;;;;;;4942052;28;20032;-86
2021/12/04 05:46:19;;;;;;;2.53;1.63;;;;;;;;;;4925337;28;20111;-88
2021/12/04 05:48:54;;;;;;;1.85;1.70;;;;;;;;;;4925241;29;20111;-86
2021/12/04 05:56:25;;;;;;;2.13;1.70;;;;;;;;;;4941432;28;20042;-87
2021/12/04 05:58:51;;;;;;;4.15;2.03;;;;;;;;;;4924859;28;20038;-86
2021/12/04 06:01:19;;;;;;;3.97;2.95;;;;;;;;;;4926431;28;20035;-87
2021/12/04 06:03:45;;;;;;;4.07;3.10;;;;;;;;;;4943458;28;20031;-86
2021/12/04 06:06:11;;;;;;;3.05;2.53;;;;;;;;;;4942988;28;20024;-88
2021/12/04 06:08:37;;;;;;;7.57;3.45;;;;;;;;;;4944161;29;20034;-87
2021/12/04 06:11:03;;;;;;;4.88;3.20;;;;;;;;;;4926305;28;20031;-86
2021/12/04 06:13:29;;;;;;;3.67;2.88;;;;;;;;;;4961639;28;20055;-87
2021/12/04 06:15:55;;;;;;;3.50;2.60;;;;;;;;;;4945444;28;20046;-86
2021/12/04 06:18:22;;;;;;;4.65;2.85;;;;;;;;;;4944246;28;20027;-85
2021/12/04 06:23:33;;;;;;;3.60;2.25;;;;;;;;;;4958151;28;20074;-86
2021/12/04 06:26:00;;;;;;;3.95;2.50;;;;;;;;;;4957834;28;20023;-84
2021/12/04 06:28:26;;;;;;;3.17;2.40;;;;;;;;;;4940845;28;20027;-84
2021/12/04 06:30:54;;;;;;;3.03;2.72;;;;;;;;;;4958239;28;20064;-86
2021/12/04 06:33:21;;;;;;;3.92;2.78;;;;;;;;;;4940385;28;20043;-87
2021/12/04 06:35:47;;;;;;;2.53;2.30;;;;;;;;;;4957514;28;20035;-85
2021/12/04 06:38:15;;;;;;;4.70;2.80;;;;;;;;;;4957459;28;20031;-85
2021/12/04 06:40:41;;;;;;;4.28;2.60;;;;;;;;;;4940781;28;20094;-84
2021/12/04 06:43:07;;;;;;;5.05;3.63;;;;;;;;;;4957189;28;20028;-85
2021/12/04 06:45:36;;;;;;;6.15;3.00;;;;;;;;;;4956603;28;20397;-85
2021/12/04 06:48:07;;;;;;;3.97;2.70;;;;;;;;;;4955257;28;20027;-85
2021/12/04 06:50:49;;;;;;;3.80;3.08;;;;;;;;;;4954989;28;20032;-86
2021/12/04 06:53:27;;;;;;;4.43;2.47;;;;;;;;;;4954808;28;20047;-85
2021/12/04 06:55:54;;;;;;;5.38;3.50;;;;;;;;;;4939082;28;20038;-85
2021/12/04 06:58:21;;;;;;;4.32;3.40;;;;;;;;;;4956373;28;20031;-84
2021/12/04 07:00:47;;;;;;;3.50;2.85;;;;;;;;;;4939256;28;20035;-85
2021/12/04 07:03:13;;;;;;;4.15;3.00;;;;;;;;;;4939919;28;20031;-87
2021/12/04 07:05:39;;;;;;;2.78;2.20;;;;;;;;;;4939200;28;20471;-87
2021/12/04 07:08:05;;;;;;;3.53;2.47;;;;;;;;;;4957725;28;20461;-84
2021/12/04 07:10:33;;;;;;;3.13;2.30;;;;;;;;;;4957797;28;20051;-85
2021/12/04 07:12:59;;;;;;;6.50;3.08;;;;;;;;;;4926655;28;20479;-84
2021/12/04 07:15:27;;;;;;;6.13;3.47;;;;;;;;;;4920794;28;20089;-84
2021/12/04 07:17:54;;;;;;;5.18;3.05;;;;;;;;;;4937615;29;20020;-85
2021/12/04 07:20:20;;;;;;;6.25;1.92;;;;;;;;;;4938266;28;20224;-86
2021/12/04 07:22:46;;;;;;;3.88;2.53;;;;;;;;;;4937956;28;20047;-86
2021/12/04 07:25:12;;;;;;;3.25;2.45;;;;;;;;;;4938551;28;20024;-86
2021/12/04 07:27:38;;;;;;;3.00;2.40;;;;;;;;;;4944874;28;20360;-88
2021/12/04 07:30:06;;;;;;;4.50;3.20;;;;;;;;;;4942005;28;20023;-86
2021/12/04 07:32:32;;;;;;;3.67;2.60;;;;;;;;;;4922922;28;20024;-86
2021/12/04 07:34:58;;;;;;;5.07;3.15;;;;;;;;;;4921786;28;20082;-87
2021/12/04 07:37:24;;;;;;;3.92;3.20;;;;;;;;;;4938637;28;20032;-86
2021/12/04 07:39:51;;;;;;;4.65;2.67;;;;;;;;;;4921422;28;20500;-85
2021/12/04 07:42:17;;;;;;;3.65;2.70;;;;;;;;;;4920304;28;20039;-85
2021/12/04 07:44:43;;;;;;;3.20;2.53;;;;;;;;;;4937718;28;20051;-84
2021/12/04 07:47:09;;;;;;;3.45;2.45;;;;;;;;;;4940754;29;20020;-84
2021/12/04 07:49:37;;;;;;;4.03;2.20;;;;;;;;;;4942633;28;20032;-84
2021/12/04 07:52:04;;;;;;;4.18;2.25;;;;;;;;;;4942921;28;20034;-83
2021/12/04 07:54:30;;;;;;;2.67;2.22;;;;;;;;;;4942430;28;20032;-84
2021/12/04 07:56:56;;;;;;;3.70;2.15;;;;;;;;;;4941081;29;20038;-85
2021/12/04 07:59:23;;;;;;;2.15;1.95;;;;;;;;;;4923715;28;20031;-85
2021/12/04 08:01:50;;;;;;;3.33;2.15;;;;;;;;;;4953140;28;20031;-84
2021/12/04 08:04:16;;;;;;;2.05;1.80;;;;;;;;;;4963244;28;20101;-84
2021/12/04 08:06:42;;;;;;;2.47;1.90;;;;;;;;;;4963117;28;20035;-85
2021/12/04 08:09:08;;;;;;;3.42;2.05;;;;;;;;;;4957360;28;20042;-85
2021/12/04 08:11:34;;;;;;;2.13;1.80;;;;;;;;;;4964534;28;20031;-84
2021/12/04 08:14:00;;;;;;;2.17;1.70;;;;;;;;;;4958136;28;20075;-85
2021/12/04 08:16:26;;;;;;;2.60;2.00;;;;;;;;;;4943196;28;20039;-85
2021/12/04 08:18:53;;;;;;;2.78;2.20;;;;;;;;;;4950055;28;20024;-85
2021/12/04 08:21:19;;;;;;;2.15;1.95;;;;;;;;;;4925428;28;20035;-85
2021/12/04 08:23:46;;;;;;;2.38;2.00;;;;;;;;;;4924507;28;20024;-86
2021/12/04 08:26:12;;;;;;;3.75;2.15;;;;;;;;;;4945081;28;20024;-86
2021/12/04 08:28:38;;;;;;;2.53;1.88;;;;;;;;;;4943822;28;20120;-85
2021/12/04 08:31:20;;;;;;;2.50;1.75;;;;;;;;;;4940035;28;20372;-85
2021/12/04 08:33:46;;;;;;;2.33;1.70;;;;;;;;;;4940123;29;20081;-85
2021/12/04 08:36:12;;;;;;;1.55;1.42;;;;;;;;;;4947242;28;20015;-87
2021/12/04 08:38:41;;;;;;;1.67;1.58;;;;;;;;;;4958751;28;20028;-85
2021/12/04 08:41:07;;;;;;;1.30;1.20;;;;;;;;;;4956873;28;20016;-87
2021/12/04 08:43:33;;;;;;;1.60;1.30;;;;;;;;;;4947534;28;20399;-85
2021/12/04 08:46:00;;;;;;;1.30;1.20;;;;;;;;;;4958917;28;20073;-87
2021/12/04 08:48:31;;;;;;;1.75;1.60;;;;;;;;;;4946817;28;20506;-85
2021/12/04 08:50:59;;;;;;;2.72;1.63;;;;;;;;;;5031930;28;20025;-87
2021/12/04 08:53:45;;;;;;;2.50;1.63;;;;;;;;;;4960482;28;20066;-86
2021/12/04 08:56:11;;;;;;;2.38;1.50;;;;;;;;;;5040894;28;20033;-86
2021/12/04 08:58:40;;;;;;;2.60;1.40;;;;;;;;;;5025159;28;20030;-85
2021/12/04 09:01:11;;;;;;;2.33;1.80;;;;;;;;;;5044004;28;20076;-86
2021/12/04 09:03:38;;;;;;;1.70;1.42;;;;;;;;;;5044205;28;20085;-86
2021/12/04 09:06:05;;;;;;;6.50;2.50;;;;;;;;;;5042038;28;20045;-85
2021/12/04 09:08:34;;;;;;;2.92;2.10;;;;;;;;;;5024772;28;20026;-86
2021/12/04 09:11:02;;;;;;;2.58;2.00;;;;;;;;;;5041035;28;20026;-85
2021/12/04 09:13:29;;;;;;;2.53;1.98;;;;;;;;;;4966185;28;20031;-86
2021/12/04 09:15:57;;;;;;;2.20;2.00;;;;;;;;;;4951969;28;20045;-86
2021/12/04 09:18:24;;;;;;;1.83;1.63;;;;;;;;;;4955809;28;20054;-85
2021/12/04 09:20:54;;;;;;;1.77;1.65;;;;;;;;;;4955658;28;20074;-85
2021/12/04 09:23:28;;;;;;;2.13;1.60;;;;;;;;;;4954756;28;20037;-85
2021/12/04 09:25:59;;;;;;;3.33;1.80;;;;;;;;;;4954271;28;20061;-85
2021/12/04 09:28:41;;;;;;;2.33;1.55;;;;;;;;;;4972478;28;20146;-85
2021/12/04 09:34:01;;;;;;;2.22;2.00;;;;;;;;;;4973149;28;20059;-87
2021/12/04 09:36:56;;;;;;;2.28;1.85;;;;;;;;;;4972776;28;20510;-86
2021/12/04 10:12:32;;;;;;;2.97;2.28;;;;;;;;;;5024101;28;20034;-86
2021/12/04 10:15:28;;;;;;;1.67;1.58;;;;;;;;;;4930323;29;20027;-87
2021/12/04 10:35:13;;;;;;;2.42;2.00;;;;;;;;;;4967706;28;20082;-86
2021/12/04 10:38:08;;;;;;;7.78;1.88;;;;;;;;;;4967244;28;20058;-87
2021/12/04 10:40:47;;;;;;;2.92;2.03;;;;;;;;;;4957622;29;20475;-84
2021/12/04 10:43:16;;;;;;;3.00;2.20;;;;;;;;;;4940211;28;20034;-86
2021/12/04 10:45:44;;;;;;;3.85;2.78;;;;;;;;;;4940454;28;20038;-85
2021/12/04 10:48:18;;;;;;;2.30;1.90;;;;;;;;;;4960794;28;20043;-88
2021/12/04 10:50:53;;;;;;;3.47;2.38;;;;;;;;;;4959112;28;20019;-88
2021/12/04 10:53:25;;;;;;;2.35;2.15;;;;;;;;;;4956216;28;20038;-86
2021/12/04 10:56:05;;;;;;;2.10;1.90;;;;;;;;;;4922431;28;20039;-86
2021/12/04 11:04:26;;;;;;;3.35;2.38;;;;;;;;;;4939986;29;20028;-85
2021/12/04 11:18:59;;;;;;;3.33;1.95;;;;;;;;;;4958244;28;20575;-86
2021/12/04 11:28:33;;;;;;;4.60;3.05;;;;;;;;;;4957173;28;20031;-86
2021/12/04 11:44:56;;;;;;;2.50;2.03;;;;;;;;;;4956671;28;20088;-86
2021/12/04 11:47:11;;;;;;;4.20;2.38;;;;;;;;;;4957179;28;20038;-85
2021/12/04 11:49:38;;;;;;;4.03;2.47;;;;;;;;;;4956963;28;20027;-86
2021/12/04 11:52:15;;;;;;;4.00;2.72;;;;;;;;;;4957804;28;20023;-87
2021/12/04 11:54:44;;;;;;;2.95;2.08;;;;;;;;;;4943080;28;20036;-85
2021/12/04 11:57:12;;;;;;;3.53;2.25;;;;;;;;;;4921482;28;20185;-87
2021/12/04 11:59:39;;;;;;;2.42;1.77;;;;;;;;;;4938199;28;20032;-86
2021/12/04 12:02:08;;;;;;;2.30;1.77;;;;;;;;;;4937317;28;20024;-86
2021/12/04 12:04:34;;;;;;;1.70;1.48;;;;;;;;;;4936202;28;20493;-86
2021/12/04 12:07:09;;;;;;;3.97;1.90;;;;;;;;;;4919717;28;20039;-86
2021/12/04 12:09:37;;;;;;;2.33;1.40;;;;;;;;;;4926128;29;20423;-86
2021/12/04 12:12:05;;;;;;;2.63;1.55;;;;;;;;;;4937505;28;20023;-86
2021/12/04 12:14:36;;;;;;;3.78;1.40;;;;;;;;;;4937619;28;20176;-86
2021/12/04 12:17:02;;;;;;;1.65;1.45;;;;;;;;;;4938229;29;20028;-86
2021/12/04 12:19:32;;;;;;;2.33;1.75;;;;;;;;;;4955106;28;20028;-85
2021/12/04 12:22:23;;;;;;;2.20;1.50;;;;;;;;;;4938969;28;20062;-86
2021/12/04 12:33:11;;;;;;;1.95;1.45;;;;;;;;;;5085425;28;20124;-83
2021/12/04 12:36:06;;;;;;;4.32;2.08;;;;;;;;;;5093185;28;20024;-82
2021/12/04 12:38:41;;;;;;;4.15;2.00;;;;;;;;;;5093980;28;20098;-82
2021/12/04 12:41:16;;;;;;;3.83;2.20;;;;;;;;;;5093784;28;20467;-82
2021/12/04 12:43:48;;;;;;;3.95;2.08;;;;;;;;;;5093497;28;20139;-83
2021/12/04 12:46:15;;;;;;;2.63;1.83;;;;;;;;;;5094209;28;20490;-83
2021/12/04 12:48:52;;;;;;;2.13;1.45;;;;;;;;;;5079099;28;20047;-83
2021/12/04 12:51:30;;;;;;;2.53;1.50;;;;;;;;;;5077353;28;20136;-83
2021/12/04 12:53:58;;;;;;;2.25;1.55;;;;;;;;;;5098326;28;20032;-83
2021/12/04 12:56:25;;;;;;;3.63;1.80;;;;;;;;;;5118013;28;20433;-82
2021/12/04 12:58:56;;;;;;;1.48;1.33;;;;;;;;;;5117592;28;20020;-83
2021/12/04 13:12:47;;;;;;;2.25;1.60;;;;;;;;;;5098066;28;20035;-80
2021/12/04 13:15:14;;;;;;;1.27;1.00;;;;;;;;;;5097689;28;20032;-80
2021/12/04 13:17:41;;;;;;;2.10;1.30;;;;;;;;;;5097377;28;20043;-82
2021/12/04 13:20:08;;;;;;;3.15;1.10;;;;;;;;;;5096618;28;20073;-82
2021/12/04 13:22:35;;;;;;;2.75;1.80;;;;;;;;;;5078453;28;20024;-82
2021/12/04 13:25:04;;;;;;;1.52;0.90;;;;;;;;;;5097368;28;20375;-81
2021/12/04 13:29:58;;;;;;;1.35;1.02;;;;;;;;;;5097026;28;20028;-80
2021/12/04 13:32:32;;;;;;;0.80;0.80;;;;;;;;;;5096712;28;20025;-80
2021/12/04 13:35:03;;;;;;;1.83;0.88;;;;;;;;;;5078420;28;20030;-82
2021/12/04 13:37:30;;;;;;;0.70;0.70;;;;;;;;;;5096850;28;20114;-82
2021/12/04 13:40:00;;;;;;;0.85;0.73;;;;;;;;;;5096287;28;20031;-82
2021/12/04 13:42:26;;;;;;;0.50;0.50;;;;;;;;;;5096452;28;20024;-81
2021/12/04 13:44:58;;;;;;;0.60;0.60;;;;;;;;;;5096890;28;20130;-81
2021/12/04 13:47:25;;;;;;;0.82;0.70;;;;;;;;;;5096855;28;20074;-82
2021/12/04 13:49:57;;;;;;;0.70;0.70;;;;;;;;;;5097113;28;20024;-83
2021/12/04 13:52:25;;;;;;;0.70;0.70;;;;;;;;;;5096268;28;20495;-82
2021/12/04 13:54:53;;;;;;;3.20;1.40;;;;;;;;;;5097765;28;20020;-82
2021/12/04 13:57:19;;;;;;;2.05;0.90;;;;;;;;;;5098441;28;20117;-82
2021/12/04 13:59:46;;;;;;;0.77;0.77;;;;;;;;;;5078701;28;20030;-82
2021/12/04 14:02:22;;;;;;;6.85;2.10;;;;;;;;;;5078638;28;20042;-81
2021/12/04 14:04:55;;;;;;;2.83;1.60;;;;;;;;;;5096265;28;20099;-83
2021/12/04 14:07:21;;;;;;;3.85;1.85;;;;;;;;;;5078392;28;20083;-80
2021/12/04 14:09:47;;;;;;;2.13;1.20;;;;;;;;;;5097158;28;20474;-80
2021/12/04 14:12:13;;;;;;;2.80;1.33;;;;;;;;;;5082212;28;20054;-80
2021/12/04 14:14:39;;;;;;;1.27;0.90;;;;;;;;;;5096948;28;20524;-81
2021/12/04 14:17:08;;;;;;;2.15;1.02;;;;;;;;;;5078896;28;20498;-82
2021/12/04 14:19:34;;;;;;;1.98;1.02;;;;;;;;;;5096373;28;20043;-82
2021/12/04 14:22:09;;;;;;;0.70;0.70;;;;;;;;;;5096449;28;20092;-82
2021/12/04 14:24:37;;;;;;;1.02;0.82;;;;;;;;;;5096151;28;20031;-81
2021/12/04 14:27:04;;;;;;;0.70;0.70;;;;;;;;;;5078127;28;20020;-81
2021/12/04 14:29:38;;;;;;;1.33;1.00;;;;;;;;;;5077653;28;20035;-83
2021/12/04 14:32:04;;;;;;;0.60;0.60;;;;;;;;;;5096204;28;20035;-82
2021/12/04 14:34:30;;;;;;;2.75;0.98;;;;;;;;;;5078369;28;20028;-82
2021/12/04 14:36:59;;;;;;;2.17;0.85;;;;;;;;;;5096970;28;20028;-83
2021/12/04 14:39:25;;;;;;;1.00;0.90;;;;;;;;;;5096781;28;20028;-83
2021/12/04 14:41:52;;;;;;;1.35;1.15;;;;;;;;;;5096467;28;20020;-83
2021/12/04 14:44:18;;;;;;;2.50;1.17;;;;;;;;;;5096388;28;20080;-82
2021/12/04 14:46:44;;;;;;;3.75;1.20;;;;;;;;;;5113038;28;20008;-80
2021/12/04 14:49:12;;;;;;;1.45;1.00;;;;;;;;;;5101944;28;20399;-82
2021/12/04 14:51:38;;;;;;;3.95;1.05;;;;;;;;;;5095989;28;20035;-81
2021/12/04 14:54:04;;;;;;;2.70;1.13;;;;;;;;;;5095547;28;20028;-81
2021/12/04 14:56:31;;;;;;;1.20;1.10;;;;;;;;;;5095282;28;20026;-82
2021/12/04 14:58:58;;;;;;;1.23;1.13;;;;;;;;;;5095359;28;20050;-79
2021/12/04 15:01:26;;;;;;;1.52;1.33;;;;;;;;;;5095703;28;20040;-80
2021/12/04 15:03:56;;;;;;;2.53;1.20;;;;;;;;;;5094715;28;20060;-80
2021/12/04 15:06:23;;;;;;;2.22;1.63;;;;;;;;;;5079564;28;20031;-82
2021/12/04 15:08:54;;;;;;;2.47;1.55;;;;;;;;;;5077500;28;20020;-82
2021/12/04 15:11:22;;;;;;;1.55;1.42;;;;;;;;;;5095391;28;20565;-81
2021/12/04 15:13:53;;;;;;;1.50;1.40;;;;;;;;;;5076910;28;20035;-81
2021/12/04 15:16:32;;;;;;;3.80;1.90;;;;;;;;;;5078014;28;20031;-83
2021/12/04 15:19:19;;;;;;;7.07;1.92;;;;;;;;;;5095516;28;20028;-84
2021/12/04 15:21:50;;;;;;;4.38;2.00;;;;;;;;;;5095426;28;20427;-79
2021/12/04 15:24:22;;;;;;;2.53;1.98;;;;;;;;;;5077347;28;20026;-82
2021/12/04 15:26:50;;;;;;;2.47;2.20;;;;;;;;;;5095697;28;20483;-81
2021/12/04 15:29:23;;;;;;;3.38;1.75;;;;;;;;;;5095564;28;20023;-83
2021/12/04 15:31:51;;;;;;;2.58;2.25;;;;;;;;;;5095839;28;20118;-84
2021/12/04 15:34:18;;;;;;;1.30;1.20;;;;;;;;;;5095999;28;20511;-82
2021/12/04 15:36:48;;;;;;;2.13;1.70;;;;;;;;;;5077301;28;20024;-82
2021/12/04 15:39:35;;;;;;;1.73;1.60;;;;;;;;;;5095780;28;20028;-82
2021/12/04 15:45:01;;;;;;;2.65;1.42;;;;;;;;;;5099142;28;20032;-80
2021/12/04 15:47:38;;;;;;;1.38;0.88;;;;;;;;;;5104502;28;20444;-82
2021/12/04 15:50:44;;;;;;;;;;;;;;;;;;;;;
2021/12/04 15:52:59;;;;;;;2.13;1.20;;;;;;;;;;5095549;28;20391;-83
2021/12/04 15:55:29;;;;;;;1.67;0.98;;;;;;;;;;5095275;28;20036;-82
2021/12/04 15:58:00;;;;;;;1.05;0.95;;;;;;;;;;5094246;28;20024;-81
2021/12/04 16:00:32;;;;;;;1.50;0.88;;;;;;;;;;5094143;28;20541;-80
2021/12/04 16:03:04;;;;;;;1.85;0.93;;;;;;;;;;5095503;28;20093;-83
2021/12/04 16:05:32;;;;;;;0.90;0.90;;;;;;;;;;5095774;28;20043;-81
2021/12/04 16:08:07;;;;;;;1.48;1.17;;;;;;;;;;5095908;28;20024;-80
2021/12/04 16:10:35;;;;;;;0.73;0.73;;;;;;;;;;5094920;28;20436;-82
2021/12/04 16:13:03;;;;;;;1.17;1.08;;;;;;;;;;5094548;28;20028;-83
2021/12/04 16:15:29;;;;;;;1.35;1.23;;;;;;;;;;5094193;28;20017;-83
2021/12/04 16:17:55;;;;;;;1.67;1.10;;;;;;;;;;5094636;28;20081;-83
2021/12/04 16:20:22;;;;;;;1.25;1.15;;;;;;;;;;5094602;28;20024;-83
2021/12/04 16:22:52;;;;;;;1.17;1.08;;;;;;;;;;5095031;28;20028;-83
2021/12/04 16:25:21;;;;;;;0.85;0.85;;;;;;;;;;5094390;28;20016;-82
2021/12/04 16:28:02;;;;;;;1.20;0.80;;;;;;;;;;5080301;28;20081;-83
2021/12/04 16:33:07;;;;;;;1.45;1.13;;;;;;;;;;5119718;28;20084;-85
2021/12/04 16:38:03;;;;;;;2.05;1.33;;;;;;;;;;5119849;28;20020;-85
2021/12/04 16:40:34;;;;;;;0.90;0.90;;;;;;;;;;5120442;28;20071;-84
2021/12/04 16:43:07;;;;;;;;;;;;;;;;;;5102888;28;20074;-85
2021/12/04 16:45:35;;;;;;;1.17;0.90;;;;;;;;;;5119958;28;19927;-85
2021/12/04 16:48:05;;;;;;;1.00;1.00;;;;;;;;;;5102474;28;20088;-84
2021/12/04 16:50:45;;;;;;;2.60;1.80;;;;;;;;;;5120110;28;20028;-84
2021/12/04 16:58:25;;;;;;;1.80;1.15;;;;;;;;;;5103006;28;20523;-81
2021/12/04 17:00:52;;;;;;;1.58;1.10;;;;;;;;;;5100878;28;20031;-81
2021/12/04 17:03:18;;;;;;;1.00;0.90;;;;;;;;;;5098380;28;20020;-81
2021/12/04 17:05:45;;;;;;;1.80;1.20;;;;;;;;;;5098413;28;20035;-81
2021/12/04 17:08:11;;;;;;;1.83;0.80;;;;;;;;;;5079130;28;20135;-82
2021/12/04 17:10:37;;;;;;;1.38;1.13;;;;;;;;;;5097448;28;20028;-82
2021/12/04 17:13:04;;;;;;;1.10;1.00;;;;;;;;;;5097687;28;20028;-81
2021/12/04 17:15:30;;;;;;;0.90;0.88;;;;;;;;;;5097567;28;20024;-80
2021/12/04 17:17:57;;;;;;;1.05;0.98;;;;;;;;;;5097101;28;20016;-82
2021/12/04 17:20:24;;;;;;;1.73;1.17;;;;;;;;;;5115342;28;20043;-84
2021/12/04 17:22:51;;;;;;;1.52;1.20;;;;;;;;;;5118729;28;20012;-81
2021/12/04 17:25:18;;;;;;;2.13;1.20;;;;;;;;;;5116737;28;20044;-84
2021/12/04 17:27:44;;;;;;;1.75;1.13;;;;;;;;;;5106737;28;20133;-80
2021/12/04 17:30:11;;;;;;;1.13;1.05;;;;;;;;;;5101205;28;20053;-82
2021/12/04 17:32:38;;;;;;;1.60;1.38;;;;;;;;;;5098002;28;20020;-82
2021/12/04 17:35:05;;;;;;;1.83;1.55;;;;;;;;;;5096738;28;20467;-83
2021/12/04 17:37:31;;;;;;;1.75;1.60;;;;;;;;;;5097008;28;20027;-83
2021/12/04 17:39:58;;;;;;;2.53;2.00;;;;;;;;;;5097803;28;20024;-83
2021/12/04 17:42:24;;;;;;;3.30;1.60;;;;;;;;;;5097309;28;20448;-83
2021/12/04 17:44:53;;;;;;;3.47;1.98;;;;;;;;;;5110862;28;20051;-84
2021/12/04 17:47:21;;;;;;;1.70;1.60;;;;;;;;;;5100820;28;20020;-85
2021/12/04 17:49:50;;;;;;;2.35;2.10;;;;;;;;;;5118494;28;20040;-85
2021/12/04 17:52:16;;;;;;;1.75;1.63;;;;;;;;;;5118111;28;20093;-83
2021/12/04 17:54:42;;;;;;;2.05;1.70;;;;;;;;;;5118682;28;20055;-83
2021/12/04 17:57:08;;;;;;;1.95;1.80;;;;;;;;;;5118247;28;20008;-83
2021/12/04 17:59:35;;;;;;;3.25;1.90;;;;;;;;;;5118384;28;20020;-84
2021/12/04 18:02:03;;;;;;;2.80;1.85;;;;;;;;;;5118456;28;20012;-83
2021/12/04 18:04:30;;;;;;;3.65;2.38;;;;;;;;;;5118304;28;20044;-83